sensor_id;sensor_type;location;lat;lon;timestamp;temperature;humidity
48994;DHT22;34804;49.214;12.276;2023-07-20T00:01:51;16.30;90.60
48994;DHT22;34804;49.214;12.276;2023-07-20T00:04:18;16.30;90.20
48994;DHT22;34804;49.214;12.276;2023-07-20T00:06:45;16.20;89.50
48994;DHT22;34804;49.214;12.276;2023-07-20T00:09:12;16.10;90.00
48994;DHT22;34804;49.214;12.276;2023-07-20T00:11:39;16.00;89.60
48994;DHT22;34804;49.214;12.276;2023-07-20T00:14:06;15.90;90.70
48994;DHT22;34804;49.214;12.276;2023-07-20T00:16:33;15.90;91.40
48994;DHT22;34804;49.214;12.276;2023-07-20T00:19:00;16.00;91.20
48994;DHT22;34804;49.214;12.276;2023-07-20T00:21:27;16.00;91.40
48994;DHT22;34804;49.214;12.276;2023-07-20T00:23:54;16.00;91.30
48994;DHT22;34804;49.214;12.276;2023-07-20T00:26:21;15.90;91.30
48994;DHT22;34804;49.214;12.276;2023-07-20T00:28:50;15.80;90.30
48994;DHT22;34804;49.214;12.276;2023-07-20T00:31:18;15.70;89.70
48994;DHT22;34804;49.214;12.276;2023-07-20T00:33:45;15.50;89.70
48994;DHT22;34804;49.214;12.276;2023-07-20T00:36:12;15.40;90.00
48994;DHT22;34804;49.214;12.276;2023-07-20T00:38:38;15.40;90.30
48994;DHT22;34804;49.214;12.276;2023-07-20T00:41:05;15.40;90.70
48994;DHT22;34804;49.214;12.276;2023-07-20T00:43:32;15.40;91.10
48994;DHT22;34804;49.214;12.276;2023-07-20T00:45:59;15.50;90.20
48994;DHT22;34804;49.214;12.276;2023-07-20T00:48:26;15.50;90.80
48994;DHT22;34804;49.214;12.276;2023-07-20T00:50:53;15.50;91.40
48994;DHT22;34804;49.214;12.276;2023-07-20T00:53:20;15.60;91.10
48994;DHT22;34804;49.214;12.276;2023-07-20T00:55:47;15.60;91.40
48994;DHT22;34804;49.214;12.276;2023-07-20T00:58:14;15.60;90.90
48994;DHT22;34804;49.214;12.276;2023-07-20T01:00:40;15.60;91.30
48994;DHT22;34804;49.214;12.276;2023-07-20T01:03:07;15.60;91.50
48994;DHT22;34804;49.214;12.276;2023-07-20T01:05:48;15.50;91.10
48994;DHT22;34804;49.214;12.276;2023-07-20T01:08:24;15.40;91.00
48994;DHT22;34804;49.214;12.276;2023-07-20T01:10:55;15.40;90.90
48994;DHT22;34804;49.214;12.276;2023-07-20T01:13:25;15.30;91.20
48994;DHT22;34804;49.214;12.276;2023-07-20T01:16:02;15.20;91.70
48994;DHT22;34804;49.214;12.276;2023-07-20T01:18:29;15.20;92.20
48994;DHT22;34804;49.214;12.276;2023-07-20T01:21:03;15.30;92.40
48994;DHT22;34804;49.214;12.276;2023-07-20T01:24:00;15.30;92.60
48994;DHT22;34804;49.214;12.276;2023-07-20T01:26:48;15.40;92.40
48994;DHT22;34804;49.214;12.276;2023-07-20T01:29:53;15.50;92.20
48994;DHT22;34804;49.214;12.276;2023-07-20T01:32:25;15.60;92.70
48994;DHT22;34804;49.214;12.276;2023-07-20T01:34:53;15.70;92.00
48994;DHT22;34804;49.214;12.276;2023-07-20T01:37:21;15.80;91.70
48994;DHT22;34804;49.214;12.276;2023-07-20T01:39:53;15.70;91.90
48994;DHT22;34804;49.214;12.276;2023-07-20T01:42:22;15.70;92.20
48994;DHT22;34804;49.214;12.276;2023-07-20T01:44:51;15.70;91.80
48994;DHT22;34804;49.214;12.276;2023-07-20T01:47:19;15.70;92.20
48994;DHT22;34804;49.214;12.276;2023-07-20T01:49:46;15.80;92.30
48994;DHT22;34804;49.214;12.276;2023-07-20T01:52:13;15.80;91.60
48994;DHT22;34804;49.214;12.276;2023-07-20T01:54:40;15.70;90.80
48994;DHT22;34804;49.214;12.276;2023-07-20T01:57:07;15.60;91.00
48994;DHT22;34804;49.214;12.276;2023-07-20T01:59:34;15.50;91.50
48994;DHT22;34804;49.214;12.276;2023-07-20T02:02:01;15.50;91.50
48994;DHT22;34804;49.214;12.276;2023-07-20T02:04:28;15.50;91.80
48994;DHT22;34804;49.214;12.276;2023-07-20T02:06:55;15.50;91.40
48994;DHT22;34804;49.214;12.276;2023-07-20T02:09:23;15.40;91.70
48994;DHT22;34804;49.214;12.276;2023-07-20T02:11:50;15.50;92.00
48994;DHT22;34804;49.214;12.276;2023-07-20T02:14:16;15.50;91.90
48994;DHT22;34804;49.214;12.276;2023-07-20T02:16:43;15.40;92.00
48994;DHT22;34804;49.214;12.276;2023-07-20T02:19:10;15.50;92.00
48994;DHT22;34804;49.214;12.276;2023-07-20T02:21:37;15.50;92.00
48994;DHT22;34804;49.214;12.276;2023-07-20T02:24:04;15.50;92.20
48994;DHT22;34804;49.214;12.276;2023-07-20T02:26:31;15.40;91.20
48994;DHT22;34804;49.214;12.276;2023-07-20T02:28:58;15.30;91.30
48994;DHT22;34804;49.214;12.276;2023-07-20T02:31:25;15.20;91.30
48994;DHT22;34804;49.214;12.276;2023-07-20T02:33:51;15.30;91.30
48994;DHT22;34804;49.214;12.276;2023-07-20T02:36:18;15.30;91.40
48994;DHT22;34804;49.214;12.276;2023-07-20T02:38:46;15.30;91.70
48994;DHT22;34804;49.214;12.276;2023-07-20T02:41:13;15.40;91.80
48994;DHT22;34804;49.214;12.276;2023-07-20T02:43:40;15.40;92.10
48994;DHT22;34804;49.214;12.276;2023-07-20T02:46:07;15.50;92.10
48994;DHT22;34804;49.214;12.276;2023-07-20T02:48:33;15.60;92.30
48994;DHT22;34804;49.214;12.276;2023-07-20T02:51:00;15.60;91.90
48994;DHT22;34804;49.214;12.276;2023-07-20T02:53:27;15.40;92.00
48994;DHT22;34804;49.214;12.276;2023-07-20T02:55:54;15.40;92.50
48994;DHT22;34804;49.214;12.276;2023-07-20T02:58:20;15.40;92.70
48994;DHT22;34804;49.214;12.276;2023-07-20T03:00:47;15.40;92.00
48994;DHT22;34804;49.214;12.276;2023-07-20T03:03:14;15.40;92.30
48994;DHT22;34804;49.214;12.276;2023-07-20T03:05:41;15.30;92.10
48994;DHT22;34804;49.214;12.276;2023-07-20T03:08:08;15.40;91.80
48994;DHT22;34804;49.214;12.276;2023-07-20T03:10:41;15.30;91.60
48994;DHT22;34804;49.214;12.276;2023-07-20T03:13:08;15.30;91.80
48994;DHT22;34804;49.214;12.276;2023-07-20T03:15:35;15.30;92.40
48994;DHT22;34804;49.214;12.276;2023-07-20T03:18:02;15.40;92.60
48994;DHT22;34804;49.214;12.276;2023-07-20T03:20:30;15.40;92.30
48994;DHT22;34804;49.214;12.276;2023-07-20T03:22:57;15.40;92.50
48994;DHT22;34804;49.214;12.276;2023-07-20T03:25:24;15.40;92.30
48994;DHT22;34804;49.214;12.276;2023-07-20T03:27:54;15.40;92.60
48994;DHT22;34804;49.214;12.276;2023-07-20T03:30:21;15.50;92.90
48994;DHT22;34804;49.214;12.276;2023-07-20T03:32:48;15.60;93.00
48994;DHT22;34804;49.214;12.276;2023-07-20T03:35:15;15.80;92.80
48994;DHT22;34804;49.214;12.276;2023-07-20T03:37:42;15.80;92.40
48994;DHT22;34804;49.214;12.276;2023-07-20T03:40:10;15.80;92.10
48994;DHT22;34804;49.214;12.276;2023-07-20T03:42:37;15.80;92.20
48994;DHT22;34804;49.214;12.276;2023-07-20T03:45:05;15.80;92.00
48994;DHT22;34804;49.214;12.276;2023-07-20T03:47:33;15.80;92.50
48994;DHT22;34804;49.214;12.276;2023-07-20T03:49:59;15.90;92.20
48994;DHT22;34804;49.214;12.276;2023-07-20T03:52:26;15.90;92.20
48994;DHT22;34804;49.214;12.276;2023-07-20T03:54:53;15.90;92.30
48994;DHT22;34804;49.214;12.276;2023-07-20T03:57:20;15.90;92.40
48994;DHT22;34804;49.214;12.276;2023-07-20T03:59:48;15.90;92.40
48994;DHT22;34804;49.214;12.276;2023-07-20T04:02:14;15.90;92.20
48994;DHT22;34804;49.214;12.276;2023-07-20T04:04:41;15.90;92.60
48994;DHT22;34804;49.214;12.276;2023-07-20T04:07:08;15.90;92.50
48994;DHT22;34804;49.214;12.276;2023-07-20T04:09:35;15.80;92.30
48994;DHT22;34804;49.214;12.276;2023-07-20T04:12:02;15.80;92.80
48994;DHT22;34804;49.214;12.276;2023-07-20T04:14:28;15.90;92.80
48994;DHT22;34804;49.214;12.276;2023-07-20T04:16:55;16.00;92.70
48994;DHT22;34804;49.214;12.276;2023-07-20T04:19:22;16.00;92.50
48994;DHT22;34804;49.214;12.276;2023-07-20T04:21:49;16.00;92.80
48994;DHT22;34804;49.214;12.276;2023-07-20T04:24:15;16.00;92.80
48994;DHT22;34804;49.214;12.276;2023-07-20T04:26:42;16.00;92.90
48994;DHT22;34804;49.214;12.276;2023-07-20T04:29:09;16.10;92.90
48994;DHT22;34804;49.214;12.276;2023-07-20T04:31:36;16.20;92.90
48994;DHT22;34804;49.214;12.276;2023-07-20T04:34:03;16.20;92.90
48994;DHT22;34804;49.214;12.276;2023-07-20T04:36:30;16.20;92.80
48994;DHT22;34804;49.214;12.276;2023-07-20T04:38:57;16.40;93.10
48994;DHT22;34804;49.214;12.276;2023-07-20T04:41:23;16.40;92.80
48994;DHT22;34804;49.214;12.276;2023-07-20T04:43:51;16.40;92.40
48994;DHT22;34804;49.214;12.276;2023-07-20T04:46:18;16.50;92.30
48994;DHT22;34804;49.214;12.276;2023-07-20T04:48:45;16.50;92.20
48994;DHT22;34804;49.214;12.276;2023-07-20T04:51:12;16.60;92.20
48994;DHT22;34804;49.214;12.276;2023-07-20T04:53:39;16.70;92.40
48994;DHT22;34804;49.214;12.276;2023-07-20T04:56:06;16.80;92.50
48994;DHT22;34804;49.214;12.276;2023-07-20T04:58:32;16.90;92.10
48994;DHT22;34804;49.214;12.276;2023-07-20T05:00:59;17.00;92.20
48994;DHT22;34804;49.214;12.276;2023-07-20T05:03:26;17.10;92.20
48994;DHT22;34804;49.214;12.276;2023-07-20T05:05:53;17.10;92.00
48994;DHT22;34804;49.214;12.276;2023-07-20T05:08:21;17.30;92.70
48994;DHT22;34804;49.214;12.276;2023-07-20T05:10:48;17.40;92.20
48994;DHT22;34804;49.214;12.276;2023-07-20T05:13:16;17.40;91.00
48994;DHT22;34804;49.214;12.276;2023-07-20T05:15:42;17.40;91.30
48994;DHT22;34804;49.214;12.276;2023-07-20T05:18:09;17.70;91.30
48994;DHT22;34804;49.214;12.276;2023-07-20T05:20:36;17.70;89.80
48994;DHT22;34804;49.214;12.276;2023-07-20T05:23:03;17.70;89.00
48994;DHT22;34804;49.214;12.276;2023-07-20T05:25:31;17.80;89.00
48994;DHT22;34804;49.214;12.276;2023-07-20T05:27:57;17.70;89.10
48994;DHT22;34804;49.214;12.276;2023-07-20T05:30:25;17.80;88.90
48994;DHT22;34804;49.214;12.276;2023-07-20T05:32:52;17.80;89.30
48994;DHT22;34804;49.214;12.276;2023-07-20T05:35:21;17.80;89.40
48994;DHT22;34804;49.214;12.276;2023-07-20T05:37:48;17.80;89.50
48994;DHT22;34804;49.214;12.276;2023-07-20T05:40:15;17.90;90.80
48994;DHT22;34804;49.214;12.276;2023-07-20T05:42:46;17.90;90.60
48994;DHT22;34804;49.214;12.276;2023-07-20T05:45:14;18.10;90.80
48994;DHT22;34804;49.214;12.276;2023-07-20T05:47:42;18.10;90.20
48994;DHT22;34804;49.214;12.276;2023-07-20T05:50:09;18.20;89.50
48994;DHT22;34804;49.214;12.276;2023-07-20T05:52:36;18.20;89.90
48994;DHT22;34804;49.214;12.276;2023-07-20T05:55:05;18.30;90.00
48994;DHT22;34804;49.214;12.276;2023-07-20T05:57:33;18.40;89.40
48994;DHT22;34804;49.214;12.276;2023-07-20T05:59:59;18.40;89.50
48994;DHT22;34804;49.214;12.276;2023-07-20T06:02:27;18.60;88.90
48994;DHT22;34804;49.214;12.276;2023-07-20T06:04:55;18.60;89.50
48994;DHT22;34804;49.214;12.276;2023-07-20T06:07:22;18.70;89.10
48994;DHT22;34804;49.214;12.276;2023-07-20T06:09:49;18.70;88.40
48994;DHT22;34804;49.214;12.276;2023-07-20T06:12:15;18.70;88.50
48994;DHT22;34804;49.214;12.276;2023-07-20T06:14:42;18.80;87.50
48994;DHT22;34804;49.214;12.276;2023-07-20T06:17:09;18.70;86.80
48994;DHT22;34804;49.214;12.276;2023-07-20T06:19:36;18.60;87.30
48994;DHT22;34804;49.214;12.276;2023-07-20T06:22:03;18.80;87.40
48994;DHT22;34804;49.214;12.276;2023-07-20T06:24:29;18.80;85.50
48994;DHT22;34804;49.214;12.276;2023-07-20T06:26:56;18.70;85.10
48994;DHT22;34804;49.214;12.276;2023-07-20T06:29:23;18.60;84.50
48994;DHT22;34804;49.214;12.276;2023-07-20T06:31:50;18.70;85.00
48994;DHT22;34804;49.214;12.276;2023-07-20T06:34:17;18.80;84.80
48994;DHT22;34804;49.214;12.276;2023-07-20T06:36:44;18.90;84.80
48994;DHT22;34804;49.214;12.276;2023-07-20T06:39:10;19.10;84.00
48994;DHT22;34804;49.214;12.276;2023-07-20T06:41:40;19.30;84.30
48994;DHT22;34804;49.214;12.276;2023-07-20T06:44:08;19.50;82.60
48994;DHT22;34804;49.214;12.276;2023-07-20T06:46:35;19.50;81.50
48994;DHT22;34804;49.214;12.276;2023-07-20T06:49:06;19.60;81.00
48994;DHT22;34804;49.214;12.276;2023-07-20T06:51:37;19.70;83.20
48994;DHT22;34804;49.214;12.276;2023-07-20T06:54:04;19.60;79.60
48994;DHT22;34804;49.214;12.276;2023-07-20T06:56:31;19.60;80.90
48994;DHT22;34804;49.214;12.276;2023-07-20T06:58:59;19.70;79.80
48994;DHT22;34804;49.214;12.276;2023-07-20T07:01:26;19.80;79.10
48994;DHT22;34804;49.214;12.276;2023-07-20T07:03:53;19.80;77.70
48994;DHT22;34804;49.214;12.276;2023-07-20T07:06:22;19.90;78.60
48994;DHT22;34804;49.214;12.276;2023-07-20T07:08:50;20.10;79.30
48994;DHT22;34804;49.214;12.276;2023-07-20T07:11:17;20.30;77.30
48994;DHT22;34804;49.214;12.276;2023-07-20T07:13:44;20.40;74.90
48994;DHT22;34804;49.214;12.276;2023-07-20T07:16:15;20.40;75.60
48994;DHT22;34804;49.214;12.276;2023-07-20T07:18:46;20.60;75.60
48994;DHT22;34804;49.214;12.276;2023-07-20T07:21:13;20.70;74.50
48994;DHT22;34804;49.214;12.276;2023-07-20T07:23:40;20.80;73.40
48994;DHT22;34804;49.214;12.276;2023-07-20T07:26:07;20.60;72.10
48994;DHT22;34804;49.214;12.276;2023-07-20T07:28:34;20.40;74.30
48994;DHT22;34804;49.214;12.276;2023-07-20T07:31:02;20.40;74.70
48994;DHT22;34804;49.214;12.276;2023-07-20T07:33:30;20.50;72.60
48994;DHT22;34804;49.214;12.276;2023-07-20T07:35:59;20.80;70.70
48994;DHT22;34804;49.214;12.276;2023-07-20T07:38:28;20.90;69.40
48994;DHT22;34804;49.214;12.276;2023-07-20T07:41:15;20.80;70.20
48994;DHT22;34804;49.214;12.276;2023-07-20T07:43:42;20.70;72.20
48994;DHT22;34804;49.214;12.276;2023-07-20T07:46:09;20.50;72.00
48994;DHT22;34804;49.214;12.276;2023-07-20T07:48:36;20.50;71.70
48994;DHT22;34804;49.214;12.276;2023-07-20T07:51:03;20.70;72.00
48994;DHT22;34804;49.214;12.276;2023-07-20T07:53:30;20.80;71.00
48994;DHT22;34804;49.214;12.276;2023-07-20T07:55:56;20.60;69.90
48994;DHT22;34804;49.214;12.276;2023-07-20T07:58:23;20.30;68.60
48994;DHT22;34804;49.214;12.276;2023-07-20T08:00:50;20.40;69.00
48994;DHT22;34804;49.214;12.276;2023-07-20T08:03:17;20.90;69.10
48994;DHT22;34804;49.214;12.276;2023-07-20T08:05:45;21.30;65.90
48994;DHT22;34804;49.214;12.276;2023-07-20T08:08:12;21.50;62.90
48994;DHT22;34804;49.214;12.276;2023-07-20T08:10:39;21.70;62.90
48994;DHT22;34804;49.214;12.276;2023-07-20T08:13:06;21.80;63.80
48994;DHT22;34804;49.214;12.276;2023-07-20T08:15:33;21.80;61.80
48994;DHT22;34804;49.214;12.276;2023-07-20T08:18:00;21.30;62.90
48994;DHT22;34804;49.214;12.276;2023-07-20T08:20:27;21.20;67.10
48994;DHT22;34804;49.214;12.276;2023-07-20T08:22:54;21.10;65.60
48994;DHT22;34804;49.214;12.276;2023-07-20T08:25:21;21.40;67.70
48994;DHT22;34804;49.214;12.276;2023-07-20T08:27:48;21.90;64.50
48994;DHT22;34804;49.214;12.276;2023-07-20T08:30:15;22.20;60.60
48994;DHT22;34804;49.214;12.276;2023-07-20T08:32:42;22.20;59.30
48994;DHT22;34804;49.214;12.276;2023-07-20T08:35:09;22.40;60.80
48994;DHT22;34804;49.214;12.276;2023-07-20T08:37:36;22.20;58.60
48994;DHT22;34804;49.214;12.276;2023-07-20T08:40:03;21.80;58.60
48994;DHT22;34804;49.214;12.276;2023-07-20T08:42:35;21.40;59.60
48994;DHT22;34804;49.214;12.276;2023-07-20T08:45:05;21.70;58.80
48994;DHT22;34804;49.214;12.276;2023-07-20T08:47:33;22.30;60.70
48994;DHT22;34804;49.214;12.276;2023-07-20T08:50:00;22.80;59.20
48994;DHT22;34804;49.214;12.276;2023-07-20T08:52:29;23.00;56.30
48994;DHT22;34804;49.214;12.276;2023-07-20T08:54:56;23.00;54.20
48994;DHT22;34804;49.214;12.276;2023-07-20T08:57:23;22.80;56.10
48994;DHT22;34804;49.214;12.276;2023-07-20T08:59:51;22.30;56.70
48994;DHT22;34804;49.214;12.276;2023-07-20T09:02:19;22.10;55.10
48994;DHT22;34804;49.214;12.276;2023-07-20T09:04:49;21.90;55.80
48994;DHT22;34804;49.214;12.276;2023-07-20T09:07:16;21.50;57.40
48994;DHT22;34804;49.214;12.276;2023-07-20T09:09:43;21.30;58.60
48994;DHT22;34804;49.214;12.276;2023-07-20T09:12:14;21.30;58.20
48994;DHT22;34804;49.214;12.276;2023-07-20T09:14:43;21.20;56.40
48994;DHT22;34804;49.214;12.276;2023-07-20T09:17:14;21.10;56.80
48994;DHT22;34804;49.214;12.276;2023-07-20T09:19:47;21.60;57.40
48994;DHT22;34804;49.214;12.276;2023-07-20T09:22:15;22.40;54.20
48994;DHT22;34804;49.214;12.276;2023-07-20T09:24:41;22.60;53.30
48994;DHT22;34804;49.214;12.276;2023-07-20T09:27:10;22.90;52.00
48994;DHT22;34804;49.214;12.276;2023-07-20T09:29:51;23.00;52.30
48994;DHT22;34804;49.214;12.276;2023-07-20T09:32:21;23.20;48.30
48994;DHT22;34804;49.214;12.276;2023-07-20T09:34:52;23.60;54.80
48994;DHT22;34804;49.214;12.276;2023-07-20T09:37:23;24.00;45.40
48994;DHT22;34804;49.214;12.276;2023-07-20T09:39:52;24.20;45.90
48994;DHT22;34804;49.214;12.276;2023-07-20T09:42:22;24.30;46.30
48994;DHT22;34804;49.214;12.276;2023-07-20T09:44:54;24.50;46.40
48994;DHT22;34804;49.214;12.276;2023-07-20T09:47:23;24.30;44.40
48994;DHT22;34804;49.214;12.276;2023-07-20T09:49:59;24.00;46.90
48994;DHT22;34804;49.214;12.276;2023-07-20T09:52:30;23.80;46.30
48994;DHT22;34804;49.214;12.276;2023-07-20T09:55:01;24.10;46.10
48994;DHT22;34804;49.214;12.276;2023-07-20T09:57:29;24.30;45.40
48994;DHT22;34804;49.214;12.276;2023-07-20T09:59:57;24.10;45.60
48994;DHT22;34804;49.214;12.276;2023-07-20T10:02:46;23.90;46.50
48994;DHT22;34804;49.214;12.276;2023-07-20T10:05:14;24.40;47.90
48994;DHT22;34804;49.214;12.276;2023-07-20T10:07:47;24.40;46.10
48994;DHT22;34804;49.214;12.276;2023-07-20T10:10:15;24.40;44.00
48994;DHT22;34804;49.214;12.276;2023-07-20T10:12:48;24.40;43.80
48994;DHT22;34804;49.214;12.276;2023-07-20T10:15:42;24.40;44.10
48994;DHT22;34804;49.214;12.276;2023-07-20T10:18:18;24.30;42.90
48994;DHT22;34804;49.214;12.276;2023-07-20T10:20:51;24.70;42.90
48994;DHT22;34804;49.214;12.276;2023-07-20T10:23:23;24.70;44.80
48994;DHT22;34804;49.214;12.276;2023-07-20T10:25:50;24.80;44.10
48994;DHT22;34804;49.214;12.276;2023-07-20T10:28:17;24.90;43.80
48994;DHT22;34804;49.214;12.276;2023-07-20T10:30:45;25.10;44.80
48994;DHT22;34804;49.214;12.276;2023-07-20T10:33:12;25.10;42.70
48994;DHT22;34804;49.214;12.276;2023-07-20T10:36:02;25.40;41.90
48994;DHT22;34804;49.214;12.276;2023-07-20T10:41:26;25.40;40.70
48994;DHT22;34804;49.214;12.276;2023-07-20T10:44:04;25.30;40.50
48994;DHT22;34804;49.214;12.276;2023-07-20T10:46:43;25.30;41.60
48994;DHT22;34804;49.214;12.276;2023-07-20T10:49:14;25.70;42.00
48994;DHT22;34804;49.214;12.276;2023-07-20T10:51:44;25.70;40.90
48994;DHT22;34804;49.214;12.276;2023-07-20T10:56:47;25.20;39.40
48994;DHT22;34804;49.214;12.276;2023-07-20T11:01:55;25.40;38.50
48994;DHT22;34804;49.214;12.276;2023-07-20T11:04:39;25.00;38.70
48994;DHT22;34804;49.214;12.276;2023-07-20T11:07:07;24.60;41.40
48994;DHT22;34804;49.214;12.276;2023-07-20T11:09:35;25.20;39.80
48994;DHT22;34804;49.214;12.276;2023-07-20T11:12:15;25.60;36.50
48994;DHT22;34804;49.214;12.276;2023-07-20T11:14:52;25.60;38.80
48994;DHT22;34804;49.214;12.276;2023-07-20T11:17:20;25.40;41.20
48994;DHT22;34804;49.214;12.276;2023-07-20T11:19:58;25.40;41.80
48994;DHT22;34804;49.214;12.276;2023-07-20T11:22:28;25.30;40.30
48994;DHT22;34804;49.214;12.276;2023-07-20T11:24:58;24.80;40.90
48994;DHT22;34804;49.214;12.276;2023-07-20T11:27:25;25.40;38.10
48994;DHT22;34804;49.214;12.276;2023-07-20T11:29:52;26.00;38.30
48994;DHT22;34804;49.214;12.276;2023-07-20T11:32:23;26.20;35.40
48994;DHT22;34804;49.214;12.276;2023-07-20T11:34:50;26.30;37.20
48994;DHT22;34804;49.214;12.276;2023-07-20T11:37:17;26.40;36.80
48994;DHT22;34804;49.214;12.276;2023-07-20T11:39:45;26.40;35.10
48994;DHT22;34804;49.214;12.276;2023-07-20T11:42:13;26.40;36.00
48994;DHT22;34804;49.214;12.276;2023-07-20T11:45:03;26.90;36.20
48994;DHT22;34804;49.214;12.276;2023-07-20T11:47:32;26.60;36.30
48994;DHT22;34804;49.214;12.276;2023-07-20T11:50:03;25.90;36.60
48994;DHT22;34804;49.214;12.276;2023-07-20T11:52:31;25.10;37.80
48994;DHT22;34804;49.214;12.276;2023-07-20T11:54:58;24.80;38.50
48994;DHT22;34804;49.214;12.276;2023-07-20T11:57:25;25.70;37.60
48994;DHT22;34804;49.214;12.276;2023-07-20T11:59:56;26.70;34.00
48994;DHT22;34804;49.214;12.276;2023-07-20T12:02:26;27.50;34.50
48994;DHT22;34804;49.214;12.276;2023-07-20T12:04:57;26.80;33.70
48994;DHT22;34804;49.214;12.276;2023-07-20T12:07:27;26.30;36.60
48994;DHT22;34804;49.214;12.276;2023-07-20T12:10:08;26.00;36.70
48994;DHT22;34804;49.214;12.276;2023-07-20T12:12:43;25.50;36.70
48994;DHT22;34804;49.214;12.276;2023-07-20T12:15:23;25.10;36.10
48994;DHT22;34804;49.214;12.276;2023-07-20T12:17:52;25.60;40.40
48994;DHT22;34804;49.214;12.276;2023-07-20T12:20:38;26.00;38.20
48994;DHT22;34804;49.214;12.276;2023-07-20T12:23:09;26.50;39.40
48994;DHT22;34804;49.214;12.276;2023-07-20T12:25:42;27.30;36.00
48994;DHT22;34804;49.214;12.276;2023-07-20T12:28:14;27.60;36.20
48994;DHT22;34804;49.214;12.276;2023-07-20T12:30:42;27.80;32.90
48994;DHT22;34804;49.214;12.276;2023-07-20T12:33:10;28.10;36.70
48994;DHT22;34804;49.214;12.276;2023-07-20T12:35:38;28.10;34.30
48994;DHT22;34804;49.214;12.276;2023-07-20T12:38:05;27.50;32.30
48994;DHT22;34804;49.214;12.276;2023-07-20T12:40:34;27.40;32.50
48994;DHT22;34804;49.214;12.276;2023-07-20T12:43:00;27.90;33.70
48994;DHT22;34804;49.214;12.276;2023-07-20T12:45:27;27.80;31.90
48994;DHT22;34804;49.214;12.276;2023-07-20T12:47:54;28.40;33.50
48994;DHT22;34804;49.214;12.276;2023-07-20T12:50:21;28.50;30.80
48994;DHT22;34804;49.214;12.276;2023-07-20T12:52:48;28.30;33.10
48994;DHT22;34804;49.214;12.276;2023-07-20T12:55:15;28.80;31.30
48994;DHT22;34804;49.214;12.276;2023-07-20T12:57:43;29.80;31.90
48994;DHT22;34804;49.214;12.276;2023-07-20T13:00:10;31.00;28.50
48994;DHT22;34804;49.214;12.276;2023-07-20T13:02:38;31.60;27.70
48994;DHT22;34804;49.214;12.276;2023-07-20T13:05:05;31.20;27.50
48994;DHT22;34804;49.214;12.276;2023-07-20T13:07:34;30.80;28.80
48994;DHT22;34804;49.214;12.276;2023-07-20T13:10:05;30.80;28.30
48994;DHT22;34804;49.214;12.276;2023-07-20T13:12:34;31.00;26.90
48994;DHT22;34804;49.214;12.276;2023-07-20T13:15:06;30.80;29.20
48994;DHT22;34804;49.214;12.276;2023-07-20T13:17:34;32.20;25.60
48994;DHT22;34804;49.214;12.276;2023-07-20T13:20:02;32.20;25.20
48994;DHT22;34804;49.214;12.276;2023-07-20T13:22:31;31.90;24.60
48994;DHT22;34804;49.214;12.276;2023-07-20T13:24:58;31.20;26.10
48994;DHT22;34804;49.214;12.276;2023-07-20T13:27:25;32.10;27.70
48994;DHT22;34804;49.214;12.276;2023-07-20T13:29:55;31.80;27.00
48994;DHT22;34804;49.214;12.276;2023-07-20T13:32:23;30.40;30.20
48994;DHT22;34804;49.214;12.276;2023-07-20T13:34:51;30.00;28.80
48994;DHT22;34804;49.214;12.276;2023-07-20T13:37:18;30.60;29.60
48994;DHT22;34804;49.214;12.276;2023-07-20T13:39:45;31.10;29.60
48994;DHT22;34804;49.214;12.276;2023-07-20T13:42:12;32.30;29.40
48994;DHT22;34804;49.214;12.276;2023-07-20T13:44:40;32.70;25.80
48994;DHT22;34804;49.214;12.276;2023-07-20T13:47:07;33.10;25.40
48994;DHT22;34804;49.214;12.276;2023-07-20T13:49:37;32.50;25.60
48994;DHT22;34804;49.214;12.276;2023-07-20T13:52:14;32.20;25.80
48994;DHT22;34804;49.214;12.276;2023-07-20T13:54:43;31.60;25.50
48994;DHT22;34804;49.214;12.276;2023-07-20T13:57:13;31.90;26.00
48994;DHT22;34804;49.214;12.276;2023-07-20T13:59:42;32.00;27.60
48994;DHT22;34804;49.214;12.276;2023-07-20T14:02:09;32.60;26.90
48994;DHT22;34804;49.214;12.276;2023-07-20T14:04:38;31.90;25.30
48994;DHT22;34804;49.214;12.276;2023-07-20T14:07:05;30.20;27.50
48994;DHT22;34804;49.214;12.276;2023-07-20T14:09:33;28.60;28.80
48994;DHT22;34804;49.214;12.276;2023-07-20T14:12:00;28.10;30.30
48994;DHT22;34804;49.214;12.276;2023-07-20T14:14:29;28.80;29.20
48994;DHT22;34804;49.214;12.276;2023-07-20T14:16:56;30.20;27.30
48994;DHT22;34804;49.214;12.276;2023-07-20T14:19:23;30.70;26.60
48994;DHT22;34804;49.214;12.276;2023-07-20T14:21:50;30.50;27.50
48994;DHT22;34804;49.214;12.276;2023-07-20T14:24:17;31.80;26.80
48994;DHT22;34804;49.214;12.276;2023-07-20T14:26:45;32.90;26.30
48994;DHT22;34804;49.214;12.276;2023-07-20T14:29:18;33.00;25.90
48994;DHT22;34804;49.214;12.276;2023-07-20T14:31:45;33.40;24.70
48994;DHT22;34804;49.214;12.276;2023-07-20T14:34:19;34.10;25.20
48994;DHT22;34804;49.214;12.276;2023-07-20T14:36:46;34.30;23.40
48994;DHT22;34804;49.214;12.276;2023-07-20T14:39:13;34.80;22.20
48994;DHT22;34804;49.214;12.276;2023-07-20T14:41:39;35.30;22.90
48994;DHT22;34804;49.214;12.276;2023-07-20T14:44:06;35.10;22.80
48994;DHT22;34804;49.214;12.276;2023-07-20T14:46:33;35.40;22.40
48994;DHT22;34804;49.214;12.276;2023-07-20T14:49:00;34.70;23.00
48994;DHT22;34804;49.214;12.276;2023-07-20T14:51:28;34.90;23.20
48994;DHT22;34804;49.214;12.276;2023-07-20T14:54:02;34.60;22.30
48994;DHT22;34804;49.214;12.276;2023-07-20T14:56:29;34.50;22.20
48994;DHT22;34804;49.214;12.276;2023-07-20T14:58:56;34.80;22.20
48994;DHT22;34804;49.214;12.276;2023-07-20T15:01:25;34.80;24.80
48994;DHT22;34804;49.214;12.276;2023-07-20T15:03:52;34.90;21.10
48994;DHT22;34804;49.214;12.276;2023-07-20T15:06:24;35.10;21.50
48994;DHT22;34804;49.214;12.276;2023-07-20T15:08:52;34.10;21.70
48994;DHT22;34804;49.214;12.276;2023-07-20T15:11:18;33.10;23.40
48994;DHT22;34804;49.214;12.276;2023-07-20T15:13:45;33.00;23.10
48994;DHT22;34804;49.214;12.276;2023-07-20T15:16:12;33.20;23.80
48994;DHT22;34804;49.214;12.276;2023-07-20T15:18:39;33.40;24.20
48994;DHT22;34804;49.214;12.276;2023-07-20T15:21:14;34.00;21.50
48994;DHT22;34804;49.214;12.276;2023-07-20T15:23:41;33.50;22.20
48994;DHT22;34804;49.214;12.276;2023-07-20T15:26:08;32.50;22.60
48994;DHT22;34804;49.214;12.276;2023-07-20T15:28:35;32.70;23.30
48994;DHT22;34804;49.214;12.276;2023-07-20T15:31:02;32.70;23.00
48994;DHT22;34804;49.214;12.276;2023-07-20T15:33:31;31.80;24.80